Time;durP1;ratioP1;P1;durP2;ratioP2;P2;SDS_P1;SDS_P2;PMS_P1;PMS_P2;Temp;Humidity;BMP_temperature;BMP_pressure;BME280_temperature;BME280_humidity;BME280_pressure;Samples;Min_cycle;Max_cycle;Signal;HPM_P1;HPM_P2
2022/09/28 00:01:48;;;;;;;;;;;;;;;9.58;84.95;98717.53;4972515;28;19929;-75
2022/09/28 00:04:51;;;;;;;;;;;;;;;9.78;84.20;98720.25;4973243;28;19936;-75
2022/09/28 00:07:55;;;;;;;;;;;;;;;9.62;84.77;98713.72;4973829;28;19921;-75
2022/09/28 00:10:58;;;;;;;;;;;;;;;9.85;84.04;98707.53;4973279;28;19921;-75
2022/09/28 00:14:02;;;;;;;;;;;;;;;9.88;84.04;98707.31;4973499;28;19924;-75
2022/09/28 00:17:07;;;;;;;;;;;;;;;9.67;84.84;98695.94;4973796;28;20305;-75
2022/09/28 00:20:11;;;;;;;;;;;;;;;9.60;85.57;98698.19;4972310;28;19922;-75
2022/09/28 00:23:18;;;;;;;;;;;;;;;9.80;85.08;98681.00;4972892;28;19964;-75
2022/09/28 00:26:22;;;;;;;;;;;;;;;9.71;85.04;98677.31;4973696;28;20305;-75
2022/09/28 00:29:30;;;;;;;;;;;;;;;9.60;85.95;98673.88;4973408;28;19969;-75
2022/09/28 00:32:34;;;;;;;;;;;;;;;9.59;85.91;98667.81;4973890;28;19921;-75
2022/09/28 00:35:37;;;;;;;;;;;;;;;9.71;85.55;98666.88;4961569;28;19964;-75
2022/09/28 00:38:41;;;;;;;;;;;;;;;9.68;85.63;98666.28;4973510;28;20336;-75
2022/09/28 00:41:45;;;;;;;;;;;;;;;9.84;84.95;98668.53;4973653;28;19921;-75
2022/09/28 00:44:52;;;;;;;;;;;;;;;9.90;85.41;98668.03;4961299;28;19942;-75
2022/09/28 00:47:57;;;;;;;;;;;;;;;9.83;85.69;98672.91;4973236;28;19937;-75
2022/09/28 00:51:04;;;;;;;;;;;;;;;9.86;85.62;98674.44;4973575;28;20292;-75
2022/09/28 00:54:08;;;;;;;;;;;;;;;9.76;85.95;98669.97;4973439;28;19921;-75
2022/09/28 00:57:12;;;;;;;;;;;;;;;9.70;86.69;98665.22;4961486;28;20392;-75
2022/09/28 01:00:16;;;;;;;;;;;;;;;9.78;86.91;98665.44;4973079;28;19921;-75
2022/09/28 01:03:20;;;;;;;;;;;;;;;9.71;87.18;98663.44;4971756;28;20336;-75
2022/09/28 01:06:29;;;;;;;;;;;;;;;9.84;87.12;98653.69;4969400;28;19925;-75
2022/09/28 01:09:34;;;;;;;;;;;;;;;9.94;86.65;98646.78;4970301;28;19921;-75
2022/09/28 01:12:38;;;;;;;;;;;;;;;9.91;86.66;98646.19;4959153;28;20297;-75
2022/09/28 01:15:46;;;;;;;;;;;;;;;9.85;86.82;98638.84;4959874;28;19978;-75
2022/09/28 01:19:03;;;;;;;;;;;;;;;9.95;86.01;98627.53;4959844;28;19921;-75
2022/09/28 01:22:28;;;;;;;;;;;;;;;9.86;86.32;98632.66;4960266;28;19921;-75
2022/09/28 01:25:40;;;;;;;;;;;;;;;9.79;87.03;98632.31;4972919;28;20008;-75
2022/09/28 01:28:46;;;;;;;;;;;;;;;9.84;87.32;98635.41;4972201;28;19944;-75
2022/09/28 01:31:53;;;;;;;;;;;;;;;9.87;87.13;98632.56;4972091;28;19921;-75
2022/09/28 01:35:01;;;;;;;;;;;;;;;9.89;86.73;98635.91;4975664;28;19941;-75
2022/09/28 01:38:09;;;;;;;;;;;;;;;9.98;86.26;98632.53;4975642;28;20034;-75
2022/09/28 01:41:16;;;;;;;;;;;;;;;9.80;87.21;98628.78;4975356;28;20358;-75
2022/09/28 01:45:01;;;;;;;;;;;;;;;;;;;;;
2022/09/28 01:54:11;;;;;;;;;;;;;;;9.88;86.96;98618.56;4926039;28;19983;-75
2022/09/28 01:57:24;;;;;;;;;;;;;;;9.99;86.84;98623.75;4963456;28;19960;-75
2022/09/28 02:00:28;;;;;;;;;;;;;;;9.83;87.54;98628.53;4974588;28;19921;-75
2022/09/28 02:03:41;;;;;;;;;;;;;;;9.92;87.00;98620.00;4964388;28;19949;-75
2022/09/28 02:07:17;;;;;;;;;;;;;;;9.93;87.00;98613.81;4964291;28;19972;-75
2022/09/28 02:10:23;;;;;;;;;;;;;;;9.82;87.75;98623.44;4947098;28;19921;-75
2022/09/28 02:13:28;;;;;;;;;;;;;;;9.87;87.48;98618.69;4975146;28;19921;-75
2022/09/28 02:16:38;;;;;;;;;;;;;;;9.87;87.52;98609.06;4974811;28;19960;-75
2022/09/28 02:19:42;;;;;;;;;;;;;;;9.95;87.00;98608.44;4963948;28;19928;-75
2022/09/28 02:22:50;;;;;;;;;;;;;;;9.92;87.13;98614.75;4963572;28;19921;-75
2022/09/28 02:25:59;;;;;;;;;;;;;;;9.86;87.40;98612.63;4964259;28;19936;-75
2022/09/28 02:29:03;;;;;;;;;;;;;;;9.95;87.02;98611.88;4964105;28;20289;-75
2022/09/28 02:32:07;;;;;;;;;;;;;;;10.02;86.86;98617.47;4975178;28;19920;-75
2022/09/28 02:35:12;;;;;;;;;;;;;;;10.04;86.92;98614.72;4974605;28;20012;-75
2022/09/28 02:38:16;;;;;;;;;;;;;;;10.06;87.09;98612.81;4963725;28;19920;-75
2022/09/28 02:41:28;;;;;;;;;;;;;;;10.19;86.57;98616.09;4974866;28;20005;-75
2022/09/28 02:44:49;;;;;;;;;;;;;;;10.07;86.61;98617.91;4961713;28;20290;-75
2022/09/28 02:47:59;;;;;;;;;;;;;;;10.04;87.33;98617.34;4963210;28;19929;-75
2022/09/28 02:51:05;;;;;;;;;;;;;;;10.07;87.18;98617.09;4963342;28;19957;-75
2022/09/28 02:54:08;;;;;;;;;;;;;;;10.14;86.74;98610.41;4975203;28;19952;-75
2022/09/28 02:57:24;;;;;;;;;;;;;;;10.12;86.92;98617.56;4973480;28;19921;-75
2022/09/28 03:00:30;;;;;;;;;;;;;;;9.99;87.52;98626.38;4974985;28;20049;-75
2022/09/28 03:03:45;;;;;;;;;;;;;;;9.83;87.81;98630.31;4975104;28;20280;-75
2022/09/28 03:06:52;;;;;;;;;;;;;;;9.85;88.26;98625.81;4963143;28;19941;-75
2022/09/28 03:10:02;;;;;;;;;;;;;;;9.97;88.15;98625.66;4962541;28;19921;-75
2022/09/28 03:13:06;;;;;;;;;;;;;;;10.02;87.56;98620.06;4962634;28;20360;-75
2022/09/28 03:16:12;;;;;;;;;;;;;;;10.18;86.82;98622.28;4963026;28;20024;-75
2022/09/28 03:19:20;;;;;;;;;;;;;;;10.08;86.92;98621.34;4962846;28;19961;-75
2022/09/28 03:22:23;;;;;;;;;;;;;;;9.99;87.75;98622.94;4961909;28;20376;-75
2022/09/28 03:25:26;;;;;;;;;;;;;;;9.86;87.75;98627.44;4962667;28;19984;-75
2022/09/28 03:28:30;;;;;;;;;;;;;;;9.96;88.11;98624.00;4962618;28;19921;-75
2022/09/28 03:31:34;;;;;;;;;;;;;;;9.90;87.42;98616.66;4951060;29;19970;-75
2022/09/28 03:34:42;;;;;;;;;;;;;;;9.76;87.81;98632.56;4943736;29;19922;-75
2022/09/28 03:37:46;;;;;;;;;;;;;;;9.74;86.42;98624.88;4941882;29;19922;-75
2022/09/28 03:40:53;;;;;;;;;;;;;;;9.91;87.07;98626.13;4955488;29;20420;-75
2022/09/28 03:48:02;;;;;;;;;;;;;;;9.84;87.28;98635.41;4974298;28;20305;-75
2022/09/28 03:51:08;;;;;;;;;;;;;;;9.75;87.55;98630.91;4974665;28;19977;-75
2022/09/28 03:54:11;;;;;;;;;;;;;;;9.82;87.33;98628.66;4973416;28;20358;-75
2022/09/28 03:57:15;;;;;;;;;;;;;;;9.93;86.73;98626.84;4961491;28;19921;-75
2022/09/28 04:00:19;;;;;;;;;;;;;;;9.84;87.46;98635.41;4946313;29;20275;-75
2022/09/28 04:03:25;;;;;;;;;;;;;;;9.81;87.38;98638.28;4923674;29;20075;-75
2022/09/28 04:06:33;;;;;;;;;;;;;;;9.76;87.54;98637.78;4935476;29;19974;-75
2022/09/28 04:09:38;;;;;;;;;;;;;;;9.86;87.44;98633.53;4935422;29;19922;-75
2022/09/28 04:12:44;;;;;;;;;;;;;;;9.66;87.81;98624.63;4923858;29;19946;-75
2022/09/28 04:15:55;;;;;;;;;;;;;;;9.72;87.89;98625.94;4924023;29;20134;-75
2022/09/28 04:19:02;;;;;;;;;;;;;;;9.66;87.62;98622.03;4935024;29;20409;-75
2022/09/28 04:22:18;;;;;;;;;;;;;;;9.52;87.49;98630.94;4935805;29;19969;-75
2022/09/28 04:48:49;;;;;;;;;;;;;;;8.39;90.61;98644.72;4933327;29;19962;-75
2022/09/28 04:52:35;;;;;;;;;;;;;;;8.31;90.98;98639.25;4931846;29;19973;-76
2022/09/28 04:55:41;;;;;;;;;;;;;;;8.67;89.06;98647.91;4930462;29;19921;-75
2022/09/28 04:58:56;;;;;;;;;;;;;;;8.90;87.39;98649.63;4930608;29;19926;-75
2022/09/28 05:11:28;;;;;;;;;;;;;;;8.78;84.95;98651.41;4945431;28;19921;-75
2022/09/28 05:14:32;;;;;;;;;;;;;;;8.77;84.88;98660.13;4942040;28;19925;-75
2022/09/28 05:17:36;;;;;;;;;;;;;;;8.69;84.84;98662.50;4941921;28;20289;-75
2022/09/28 05:20:46;;;;;;;;;;;;;;;8.70;84.62;98663.31;4941418;28;20270;-75
2022/09/28 05:23:50;;;;;;;;;;;;;;;8.69;85.13;98667.72;4953521;29;19925;-75
2022/09/28 05:26:53;;;;;;;;;;;;;;;8.56;85.28;98673.00;4954750;28;19921;-75
2022/09/28 05:30:02;;;;;;;;;;;;;;;8.64;85.10;98674.19;4952822;29;20417;-75
2022/09/28 05:33:35;;;;;;;;;;;;;;;8.74;84.60;98683.00;4964712;28;20403;-75
2022/09/28 05:36:49;;;;;;;;;;;;;;;8.60;84.47;98679.63;4953256;29;19949;-76
2022/09/28 05:39:54;;;;;;;;;;;;;;;8.46;85.00;98677.22;4954913;28;20449;-76
2022/09/28 05:42:59;;;;;;;;;;;;;;;8.44;85.00;98675.66;4954325;28;20589;-76
2022/09/28 05:46:04;;;;;;;;;;;;;;;8.16;85.98;98695.84;4954311;29;19921;-76
2022/09/28 05:49:08;;;;;;;;;;;;;;;8.40;89.23;98679.44;4953447;29;19973;-77
2022/09/28 05:52:13;;;;;;;;;;;;;;;8.71;86.61;98688.41;4952210;29;19925;-76
2022/09/28 05:55:16;;;;;;;;;;;;;;;8.79;85.41;98683.50;4952742;29;20269;-76
2022/09/28 05:58:19;;;;;;;;;;;;;;;8.63;85.29;98688.19;4952883;29;19925;-76
2022/09/28 06:01:23;;;;;;;;;;;;;;;8.69;84.56;98685.94;4956418;28;19925;-76
2022/09/28 06:04:27;;;;;;;;;;;;;;;8.81;84.57;98690.25;4958511;28;19929;-76
2022/09/28 06:07:31;;;;;;;;;;;;;;;8.74;84.56;98685.59;4972021;28;19920;-76
2022/09/28 06:10:35;;;;;;;;;;;;;;;8.75;84.40;98695.09;4959781;28;19921;-76
2022/09/28 06:13:39;;;;;;;;;;;;;;;8.69;84.78;98687.72;4972414;28;19921;-76
2022/09/28 06:16:42;;;;;;;;;;;;;;;8.77;84.77;98690.59;4960619;28;20016;-76
2022/09/28 06:19:47;;;;;;;;;;;;;;;8.66;85.30;98690.56;4959166;28;19925;-77
2022/09/28 06:23:02;;;;;;;;;;;;;;;8.78;84.49;98697.47;4960599;28;19921;-76
2022/09/28 06:26:06;;;;;;;;;;;;;;;8.84;84.35;98691.81;4960545;28;19921;-76
2022/09/28 06:29:09;;;;;;;;;;;;;;;8.67;85.10;98694.81;4960563;28;19960;-76
2022/09/28 06:32:13;;;;;;;;;;;;;;;8.65;85.45;98705.38;4958413;28;20346;-77
2022/09/28 06:35:17;;;;;;;;;;;;;;;8.66;85.19;98701.81;4970027;28;20284;-77
2022/09/28 06:38:21;;;;;;;;;;;;;;;8.79;84.91;98704.34;4958936;28;20281;-76
2022/09/28 06:41:25;;;;;;;;;;;;;;;8.84;84.88;98708.28;4959103;28;20273;-76
2022/09/28 06:44:29;;;;;;;;;;;;;;;8.87;85.17;98712.44;4959639;28;19924;-77
2022/09/28 06:47:57;;;;;;;;;;;;;;;8.92;84.94;98722.50;4946680;28;20346;-76
2022/09/28 06:51:07;;;;;;;;;;;;;;;9.17;84.62;98711.06;4939827;28;19969;-77
2022/09/28 06:54:45;;;;;;;;;;;;;;;9.52;82.67;98724.06;4894777;29;19922;-77
2022/09/28 06:58:13;;;;;;;;;;;;;;;9.54;82.95;98732.59;4952863;28;20004;-76
2022/09/28 07:01:17;;;;;;;;;;;;;;;9.46;83.04;98724.50;4944534;28;19973;-77
2022/09/28 07:04:43;;;;;;;;;;;;;;;9.53;84.10;98729.13;4930390;29;19925;-77
2022/09/28 07:08:24;;;;;;;;;;;;;;;9.22;81.84;98733.25;4950534;28;20276;-76
2022/09/28 07:11:40;;;;;;;;;;;;;;;9.09;81.05;98742.91;4940162;28;20241;-76
2022/09/28 07:14:56;;;;;;;;;;;;;;;9.13;82.53;98733.94;4952794;28;19920;-76
2022/09/28 07:18:00;;;;;;;;;;;;;;;9.08;81.88;98747.31;4959561;28;19924;-76
2022/09/28 07:21:06;;;;;;;;;;;;;;;8.91;82.15;98745.13;4958796;28;19981;-76
2022/09/28 07:24:13;;;;;;;;;;;;;;;8.81;82.24;98749.38;4958516;28;19925;-76
2022/09/28 07:27:38;;;;;;;;;;;;;;;8.74;81.54;98753.34;4971347;28;19921;-76
2022/09/28 07:31:04;;;;;;;;;;;;;;;8.73;81.43;98762.94;4970411;28;20025;-76
2022/09/28 07:34:26;;;;;;;;;;;;;;;8.77;81.16;98763.53;4958911;28;20285;-76
2022/09/28 07:37:35;;;;;;;;;;;;;;;8.78;81.99;98766.06;4958989;28;20396;-76
2022/09/28 07:44:04;;;;;;;;;;;;;;;9.03;80.76;98765.09;4957311;28;19925;-76
2022/09/28 07:47:08;;;;;;;;;;;;;;;9.02;80.95;98773.00;4957690;28;20004;-76
2022/09/28 07:50:34;;;;;;;;;;;;;;;8.97;80.55;98773.34;4971067;28;19964;-76
2022/09/28 07:54:03;;;;;;;;;;;;;;;8.95;80.69;98783.06;4970158;28;20428;-76
2022/09/28 07:57:24;;;;;;;;;;;;;;;9.05;80.13;98784.03;4970838;28;20005;-76
2022/09/28 08:00:51;;;;;;;;;;;;;;;9.16;78.89;98790.25;4931360;29;19922;-76
2022/09/28 08:03:55;;;;;;;;;;;;;;;9.39;79.59;98797.19;4930305;29;20049;-76
2022/09/28 08:06:59;;;;;;;;;;;;;;;9.47;79.14;98797.44;4922875;28;19965;-76
2022/09/28 08:10:02;;;;;;;;;;;;;;;9.58;79.23;98811.47;4939610;28;20300;-76
2022/09/28 08:13:06;;;;;;;;;;;;;;;9.83;77.68;98807.81;4950554;28;20235;-76
2022/09/28 08:16:28;;;;;;;;;;;;;;;9.71;78.02;98805.19;4950520;28;19921;-76
2022/09/28 08:23:25;;;;;;;;;;;;;;;9.67;77.08;98805.56;4927492;28;19925;-76
2022/09/28 08:26:28;;;;;;;;;;;;;;;9.78;76.75;98819.44;4937895;28;19921;-76
2022/09/28 08:29:32;;;;;;;;;;;;;;;9.76;76.66;98831.78;4949824;29;19992;-76
2022/09/28 08:32:54;;;;;;;;;;;;;;;9.95;75.14;98831.19;4949440;29;19933;-76
2022/09/28 08:36:16;;;;;;;;;;;;;;;10.09;75.31;98839.78;4950832;29;19922;-76
2022/09/28 08:39:37;;;;;;;;;;;;;;;10.09;74.73;98834.53;4931069;29;19962;-76
2022/09/28 08:43:01;;;;;;;;;;;;;;;10.20;74.15;98847.59;4930399;29;19995;-76
2022/09/28 08:46:46;;;;;;;;;;;;;;;10.24;74.34;98841.16;4937629;28;19937;-76
2022/09/28 08:50:13;;;;;;;;;;;;;;;10.29;73.08;98846.09;4950479;28;19983;-76
2022/09/28 08:53:49;;;;;;;;;;;;;;;10.08;74.12;98845.91;4938873;28;19921;-76
2022/09/28 08:57:06;;;;;;;;;;;;;;;10.33;73.34;98850.94;4947302;29;19925;-76
2022/09/28 09:00:16;;;;;;;;;;;;;;;10.41;73.05;98850.34;4949635;29;20013;-78
2022/09/28 09:03:41;;;;;;;;;;;;;;;10.67;72.61;98853.53;4949206;29;19925;-77
2022/09/28 09:07:10;;;;;;;;;;;;;;;10.57;72.00;98856.03;4949447;29;19921;-77
2022/09/28 09:10:18;;;;;;;;;;;;;;;10.57;72.19;98858.66;4949399;29;19973;-77
2022/09/28 09:17:14;;;;;;;;;;;;;;;10.61;72.49;98862.69;4949652;29;20252;-77
2022/09/28 09:20:52;;;;;;;;;;;;;;;10.56;71.99;98858.75;4950806;29;19956;-77
2022/09/28 09:24:36;;;;;;;;;;;;;;;10.61;73.40;98872.31;4950577;29;20401;-77
2022/09/28 09:27:58;;;;;;;;;;;;;;;10.52;70.98;98862.56;4949150;28;19965;-77
2022/09/28 09:31:22;;;;;;;;;;;;;;;10.69;69.88;98862.09;4947567;29;20332;-77
2022/09/28 09:34:46;;;;;;;;;;;;;;;10.89;68.19;98858.72;4949670;29;20401;-77
2022/09/28 09:38:27;;;;;;;;;;;;;;;10.68;68.78;98860.41;4949526;29;19942;-77
2022/09/28 09:42:08;;;;;;;;;;;;;;;10.61;68.85;98864.47;4928829;29;19926;-77
2022/09/28 09:45:58;;;;;;;;;;;;;;;10.76;68.32;98863.25;4928096;29;19925;-77
2022/09/28 09:49:29;;;;;;;;;;;;;;;11.04;66.87;98861.88;4899556;29;19930;-77
2022/09/28 09:52:54;;;;;;;;;;;;;;;11.40;67.22;98858.06;4910214;28;20381;-77
2022/09/28 09:56:13;;;;;;;;;;;;;;;11.34;66.91;98852.50;4922218;29;19921;-77
2022/09/28 09:59:36;;;;;;;;;;;;;;;11.33;67.08;98867.38;4934410;29;19937;-77
2022/09/28 10:03:26;;;;;;;;;;;;;;;11.20;66.99;98865.84;4935494;29;20601;-77
2022/09/28 10:06:36;;;;;;;;;;;;;;;11.13;67.26;98862.91;4928523;28;20069;-77
2022/09/28 10:09:44;;;;;;;;;;;;;;;11.48;65.23;98859.19;4971682;28;20364;-77
2022/09/28 10:13:10;;;;;;;;;;;;;;;11.45;65.23;98857.66;4972783;28;20266;-77
2022/09/28 10:16:18;;;;;;;;;;;;;;;11.42;65.46;98857.91;4960068;28;20169;-77
2022/09/28 10:19:31;;;;;;;;;;;;;;;11.25;65.45;98863.72;4960698;28;19988;-77
2022/09/28 10:22:55;;;;;;;;;;;;;;;11.02;65.58;98862.97;4971299;28;20370;-77
2022/09/28 10:26:01;;;;;;;;;;;;;;;10.97;66.33;98870.34;4971813;28;19921;-77
2022/09/28 10:29:11;;;;;;;;;;;;;;;11.00;66.05;98877.94;4959935;28;19984;-77
2022/09/28 10:32:23;;;;;;;;;;;;;;;11.03;66.85;98880.31;4971129;28;19968;-77
2022/09/28 10:35:38;;;;;;;;;;;;;;;10.98;67.82;98882.47;4933340;28;19930;-76
2022/09/28 10:38:46;;;;;;;;;;;;;;;10.92;68.41;98887.22;4959224;28;19949;-77
2022/09/28 10:42:10;;;;;;;;;;;;;;;11.36;68.00;98884.59;4961918;28;19925;-77
2022/09/28 10:45:18;;;;;;;;;;;;;;;11.77;67.37;98880.34;4940733;28;20278;-77
2022/09/28 10:48:22;;;;;;;;;;;;;;;11.78;65.03;98880.22;4940919;28;19937;-77
2022/09/28 10:51:39;;;;;;;;;;;;;;;11.86;64.92;98885.66;4958266;28;20570;-77
2022/09/28 10:54:51;;;;;;;;;;;;;;;11.68;64.99;98881.97;4960884;28;20352;-77
2022/09/28 10:57:58;;;;;;;;;;;;;;;11.68;66.40;98889.81;4958082;28;19922;-77
2022/09/28 11:01:12;;;;;;;;;;;;;;;11.44;65.27;98894.44;4959839;28;20543;-77
2022/09/28 11:04:20;;;;;;;;;;;;;;;11.51;64.84;98890.34;4954663;28;19925;-78
2022/09/28 11:07:29;;;;;;;;;;;;;;;11.57;64.84;98900.31;4939916;28;19941;-77
2022/09/28 11:10:33;;;;;;;;;;;;;;;11.66;65.29;98896.94;4939295;28;19921;-78
2022/09/28 11:13:47;;;;;;;;;;;;;;;11.76;65.61;98903.09;4939417;28;20341;-78
2022/09/28 11:17:14;;;;;;;;;;;;;;;11.85;66.64;98904.16;4940868;28;19921;-77
2022/09/28 11:20:28;;;;;;;;;;;;;;;11.77;67.36;98904.75;4941448;28;20297;-77
2022/09/28 11:23:35;;;;;;;;;;;;;;;11.57;65.78;98909.00;4940702;29;20318;-77
2022/09/28 11:26:56;;;;;;;;;;;;;;;11.71;66.99;98896.56;4940132;28;19921;-77
2022/09/28 11:30:03;;;;;;;;;;;;;;;12.06;66.30;98904.97;4942967;28;19972;-77
2022/09/28 11:33:17;;;;;;;;;;;;;;;12.24;65.49;98894.72;4950186;28;20029;-77
2022/09/28 11:36:50;;;;;;;;;;;;;;;12.09;66.11;98886.38;4958329;28;19941;-78
2022/09/28 11:39:57;;;;;;;;;;;;;;;12.13;65.84;98893.97;4958508;28;20313;-77
2022/09/28 11:43:04;;;;;;;;;;;;;;;12.18;65.56;98889.16;4958154;28;19932;-77
2022/09/28 11:46:12;;;;;;;;;;;;;;;12.06;64.60;98896.25;4939127;29;19995;-77
2022/09/28 11:49:19;;;;;;;;;;;;;;;12.36;64.97;98887.59;4920389;29;19930;-77
2022/09/28 11:52:27;;;;;;;;;;;;;;;12.37;62.80;98891.03;4933218;29;20385;-77
2022/09/28 11:55:40;;;;;;;;;;;;;;;12.26;62.60;98886.72;4932302;29;20318;-76
2022/09/28 11:58:46;;;;;;;;;;;;;;;12.33;64.17;98888.69;4940253;28;20325;-76
2022/09/28 12:02:01;;;;;;;;;;;;;;;12.09;62.80;98891.63;4941354;29;20014;-77
2022/09/28 12:05:33;;;;;;;;;;;;;;;12.22;63.02;98882.69;4950196;29;19926;-77
2022/09/28 12:08:45;;;;;;;;;;;;;;;12.25;62.67;98880.66;4950134;28;20001;-77
2022/09/28 12:12:19;;;;;;;;;;;;;;;12.56;62.03;98883.25;4950424;29;20115;-77
2022/09/28 12:15:46;;;;;;;;;;;;;;;12.67;61.66;98877.09;4960387;28;19921;-77
2022/09/28 12:19:03;;;;;;;;;;;;;;;12.49;60.45;98887.38;4950746;29;19922;-76
2022/09/28 12:22:14;;;;;;;;;;;;;;;12.51;60.37;98885.47;4950813;28;20020;-77
2022/09/28 12:25:20;;;;;;;;;;;;;;;12.39;60.89;98884.72;4953538;28;20231;-77
2022/09/28 12:28:23;;;;;;;;;;;;;;;12.34;61.50;98872.00;4951194;28;19921;-77
2022/09/28 12:31:27;;;;;;;;;;;;;;;12.46;60.83;98879.78;4950043;28;19921;-77
2022/09/28 12:34:30;;;;;;;;;;;;;;;12.39;60.88;98874.22;4950244;29;19924;-77
2022/09/28 12:37:56;;;;;;;;;;;;;;;12.32;61.04;98878.34;4948672;28;19921;-77
2022/09/28 12:41:15;;;;;;;;;;;;;;;12.29;61.37;98882.06;4954363;28;20310;-77
2022/09/28 12:44:40;;;;;;;;;;;;;;;12.48;61.23;98873.44;4960814;28;20439;-77
2022/09/28 12:48:02;;;;;;;;;;;;;;;12.18;60.04;98879.50;4955078;28;20340;-76
2022/09/28 12:51:24;;;;;;;;;;;;;;;12.15;61.09;98878.94;4959959;28;19920;-77
2022/09/28 12:54:33;;;;;;;;;;;;;;;12.05;63.21;98892.00;4959614;28;19969;-77
2022/09/28 12:57:40;;;;;;;;;;;;;;;12.09;64.28;98893.38;4963468;28;19977;-77
2022/09/28 13:00:51;;;;;;;;;;;;;;;12.31;66.40;98895.84;4959429;28;19979;-77
2022/09/28 13:04:13;;;;;;;;;;;;;;;16.25;52.63;98873.97;4955036;28;19925;-77
2022/09/28 13:07:20;;;;;;;;;;;;;;;22.95;37.73;98875.88;4950505;28;19953;-77
2022/09/28 13:10:32;;;;;;;;;;;;;;;22.49;37.49;98863.13;4950719;29;20029;-77
2022/09/28 13:13:38;;;;;;;;;;;;;;;19.22;43.69;98878.00;4950554;29;19921;-77
2022/09/28 13:17:05;;;;;;;;;;;;;;;19.78;41.72;98873.28;4950965;29;20025;-77
2022/09/28 13:20:31;;;;;;;;;;;;;;;21.24;38.60;98866.44;4950215;29;20282;-77
2022/09/28 13:23:34;;;;;;;;;;;;;;;18.62;45.15;98874.16;4950672;29;20353;-77
2022/09/28 13:26:42;;;;;;;;;;;;;;;20.91;40.68;98861.59;4949904;28;20305;-77
2022/09/28 13:29:48;;;;;;;;;;;;;;;19.19;44.72;98865.94;4954722;29;19964;-77
2022/09/28 13:32:55;;;;;;;;;;;;;;;18.72;44.50;98869.50;4953788;29;19966;-77
2022/09/28 13:35:58;;;;;;;;;;;;;;;16.88;48.42;98870.97;4953721;29;20385;-77
2022/09/28 13:39:03;;;;;;;;;;;;;;;15.93;51.39;98867.50;4953599;29;19986;-76
2022/09/28 13:42:09;;;;;;;;;;;;;;;14.78;54.25;98880.59;4953050;29;20053;-77
2022/09/28 13:45:12;;;;;;;;;;;;;;;14.52;54.40;98883.09;4953261;29;19935;-77
2022/09/28 13:48:19;;;;;;;;;;;;;;;14.62;54.18;98882.06;4952897;28;20301;-77
2022/09/28 13:51:31;;;;;;;;;;;;;;;14.24;55.03;98880.41;4954359;28;19921;-77
2022/09/28 13:54:43;;;;;;;;;;;;;;;13.73;55.93;98877.19;4953521;28;20615;-77
2022/09/28 13:57:51;;;;;;;;;;;;;;;13.78;56.99;98883.81;4952884;28;19930;-77
2022/09/28 14:01:20;;;;;;;;;;;;;;;13.75;57.87;98881.47;4953162;28;20307;-77
2022/09/28 14:04:46;;;;;;;;;;;;;;;13.79;56.74;98882.88;4945169;28;19973;-77
2022/09/28 14:07:54;;;;;;;;;;;;;;;13.90;57.45;98885.31;4952870;28;19937;-77
2022/09/28 14:11:16;;;;;;;;;;;;;;;13.94;57.55;98881.44;4952382;28;20404;-77
2022/09/28 14:14:25;;;;;;;;;;;;;;;13.25;58.33;98885.09;4953593;29;19980;-77
2022/09/28 14:17:31;;;;;;;;;;;;;;;13.36;59.97;98887.56;4954301;29;20278;-78
2022/09/28 14:20:36;;;;;;;;;;;;;;;13.37;57.92;98878.75;4953810;28;19924;-77
2022/09/28 14:23:57;;;;;;;;;;;;;;;13.16;59.54;98880.63;4941370;28;20354;-77
2022/09/28 14:27:04;;;;;;;;;;;;;;;13.33;59.60;98900.16;4934735;29;19970;-77
2022/09/28 14:30:10;;;;;;;;;;;;;;;13.28;59.35;98891.88;4948438;28;19926;-77
2022/09/28 14:33:21;;;;;;;;;;;;;;;13.41;58.64;98898.50;4954934;28;19937;-77
2022/09/28 14:43:33;;;;;;;;;;;;;;;13.26;58.97;98887.56;4954422;29;20281;-77
2022/09/28 14:46:47;;;;;;;;;;;;;;;12.93;60.59;98890.53;4953714;28;19970;-77
2022/09/28 14:50:04;;;;;;;;;;;;;;;13.07;58.85;98886.69;4954699;29;19930;-77
2022/09/28 14:53:12;;;;;;;;;;;;;;;13.12;59.25;98890.56;4953661;28;19920;-77
2022/09/28 14:56:17;;;;;;;;;;;;;;;13.20;58.88;98892.50;4953766;29;20417;-77
2022/09/28 14:59:25;;;;;;;;;;;;;;;13.25;60.91;98893.78;4953380;29;20254;-77
2022/09/28 15:02:32;;;;;;;;;;;;;;;13.40;62.91;98896.00;4952976;28;19941;-77
2022/09/28 15:05:45;;;;;;;;;;;;;;;13.37;61.29;98889.25;4949824;28;20005;-77
2022/09/28 15:08:50;;;;;;;;;;;;;;;13.25;59.79;98895.59;4949279;29;20020;-77
2022/09/28 15:12:12;;;;;;;;;;;;;;;13.31;60.43;98895.03;4950983;29;20377;-77
2022/09/28 15:15:37;;;;;;;;;;;;;;;13.39;60.81;98896.97;4953087;28;20027;-77
2022/09/28 15:18:45;;;;;;;;;;;;;;;13.49;59.42;98903.06;4953215;29;19955;-77
2022/09/28 15:21:49;;;;;;;;;;;;;;;13.54;62.02;98903.47;4954733;28;19921;-76
2022/09/28 15:24:54;;;;;;;;;;;;;;;13.57;64.12;98899.75;4955366;29;20293;-76
2022/09/28 15:28:03;;;;;;;;;;;;;;;13.58;64.77;98904.03;4951868;29;20297;-77
2022/09/28 15:31:16;;;;;;;;;;;;;;;13.52;63.29;98908.03;4948789;29;19929;-77
2022/09/28 15:37:51;;;;;;;;;;;;;;;13.58;66.52;98910.09;4933711;28;19922;-77
2022/09/28 15:40:54;;;;;;;;;;;;;;;13.64;66.30;98900.84;4952041;28;19925;-77
2022/09/28 15:44:10;;;;;;;;;;;;;;;13.64;67.37;98901.66;4951256;28;19997;-77
2022/09/28 15:47:26;;;;;;;;;;;;;;;13.63;67.52;98907.91;4939806;28;19921;-77
2022/09/28 15:50:33;;;;;;;;;;;;;;;13.68;65.82;98905.66;4934986;28;19921;-77
2022/09/28 15:53:42;;;;;;;;;;;;;;;13.75;67.37;98907.72;4933083;28;19930;-77
2022/09/28 15:56:58;;;;;;;;;;;;;;;13.63;68.04;98912.31;4952689;28;20017;-77
2022/09/28 16:00:22;;;;;;;;;;;;;;;13.52;68.81;98915.91;4966536;28;20106;-77
2022/09/28 16:03:29;;;;;;;;;;;;;;;13.42;69.06;98915.06;4931969;29;19926;-77
2022/09/28 16:06:33;;;;;;;;;;;;;;;13.29;70.13;98917.97;4931544;29;19929;-77
2022/09/28 16:09:59;;;;;;;;;;;;;;;13.32;69.95;98915.06;4914151;29;19974;-77
2022/09/28 16:13:14;;;;;;;;;;;;;;;13.47;69.97;98910.25;4902608;29;19921;-77
2022/09/28 16:16:25;;;;;;;;;;;;;;;13.48;70.42;98914.53;4911745;29;20327;-77
2022/09/28 16:19:31;;;;;;;;;;;;;;;13.45;70.59;98918.25;4932701;28;19969;-77
2022/09/28 16:22:41;;;;;;;;;;;;;;;13.69;71.70;98904.72;4950281;28;19968;-77
2022/09/28 16:26:00;;;;;;;;;;;;;;;13.50;73.20;98915.22;4950876;28;19961;-77
2022/09/28 16:32:52;;;;;;;;;;;;;;;13.08;72.25;98915.44;4911190;29;20000;-77
2022/09/28 16:36:00;;;;;;;;;;;;;;;13.14;71.80;98921.91;4931350;29;20396;-77
2022/09/28 16:39:10;;;;;;;;;;;;;;;13.16;70.77;98925.25;4931307;29;19925;-77
2022/09/28 16:42:26;;;;;;;;;;;;;;;13.08;71.94;98918.06;4931853;29;19922;-77
2022/09/28 16:45:30;;;;;;;;;;;;;;;13.08;73.01;98923.31;4941445;28;19921;-77
2022/09/28 16:48:36;;;;;;;;;;;;;;;13.03;72.28;98921.06;4950273;28;19949;-77
2022/09/28 16:51:39;;;;;;;;;;;;;;;12.97;72.85;98928.66;4950556;28;20381;-77
2022/09/28 16:58:08;;;;;;;;;;;;;;;12.84;74.78;98928.06;4951277;28;19977;-77
2022/09/28 17:01:42;;;;;;;;;;;;;;;12.67;75.33;98925.13;4950350;28;19960;-77
2022/09/28 17:04:51;;;;;;;;;;;;;;;12.60;74.96;98916.09;4969994;28;19976;-76
2022/09/28 19:42:50;;;;;;;;;;;;;;;11.35;76.87;99103.56;4859410;29;19942;-75
2022/09/28 19:46:39;;;;;;;;;;;;;;;11.37;76.50;99113.94;4858706;29;19922;-76
2022/09/28 19:50:09;;;;;;;;;;;;;;;11.28;77.74;99114.66;4856827;29;20085;-76
2022/09/28 19:53:13;;;;;;;;;;;;;;;11.25;77.83;99118.31;4856797;29;19975;-76
2022/09/28 19:56:17;;;;;;;;;;;;;;;11.20;77.74;99122.25;4894492;29;20386;-75
2022/09/28 19:59:26;;;;;;;;;;;;;;;11.17;78.46;99113.69;4935905;29;19978;-76
2022/09/28 20:02:31;;;;;;;;;;;;;;;11.31;77.76;99123.09;4935699;29;19941;-76
2022/09/28 20:05:37;;;;;;;;;;;;;;;11.53;77.01;99124.88;4935900;29;19969;-76
2022/09/28 20:08:42;;;;;;;;;;;;;;;11.40;76.54;99125.00;4936310;29;20325;-76
2022/09/28 20:11:47;;;;;;;;;;;;;;;11.27;76.52;99121.66;4936138;29;20061;-76
2022/09/28 20:14:52;;;;;;;;;;;;;;;11.12;78.31;99121.06;4936303;29;19922;-76
2022/09/28 20:18:02;;;;;;;;;;;;;;;11.17;78.01;99118.09;4935583;29;19937;-76
2022/09/28 20:22:22;;;;;;;;;;;;;;;10.94;79.49;99118.09;4895662;29;19922;-76
2022/09/28 20:26:26;;;;;;;;;;;;;;;11.00;78.87;99108.09;4895467;29;19922;-76
2022/09/28 20:29:31;;;;;;;;;;;;;;;10.94;77.73;99109.38;4897964;29;19926;-75
2022/09/28 20:32:35;;;;;;;;;;;;;;;10.97;77.25;99109.16;4922568;29;19922;-75
2022/09/28 20:35:43;;;;;;;;;;;;;;;10.74;78.00;99113.50;4935955;29;20267;-75